Time;durP1;ratioP1;P1;durP2;ratioP2;P2;SDS_P1;SDS_P2;PMS_P1;PMS_P2;Temp;Humidity;BMP_temperature;BMP_pressure;BME280_temperature;BME280_humidity;BME280_pressure;Samples;Min_cycle;Max_cycle;Signal;HPM_P1;HPM_P2
2022/12/13 00:00:55;;;;;;;30.63;13.47;;;;;;;-3.09;100.00;98839.09;4203873;28;20513;-65
2022/12/13 00:03:21;;;;;;;30.73;13.23;;;;;;;-3.09;100.00;98841.72;4205143;28;20236;-64
2022/12/13 00:05:48;;;;;;;33.47;14.60;;;;;;;-3.13;100.00;98842.81;4178780;28;20436;-64
2022/12/13 00:08:14;;;;;;;28.70;12.70;;;;;;;-3.18;100.00;98834.50;4190968;28;20296;-65
2022/12/13 00:10:41;;;;;;;27.70;12.20;;;;;;;-3.23;100.00;98841.72;4215466;28;20309;-63
2022/12/13 00:13:07;;;;;;;28.57;12.43;;;;;;;-3.19;100.00;98840.59;4198593;28;25118;-63
2022/12/13 00:15:34;;;;;;;23.57;11.20;;;;;;;-3.16;100.00;98848.25;4199344;28;20411;-61
2022/12/13 00:18:01;;;;;;;33.93;12.80;;;;;;;-3.20;100.00;98846.75;4205403;28;20236;-65
2022/12/13 00:20:27;;;;;;;27.13;12.57;;;;;;;-3.20;100.00;98847.59;4206078;28;20263;-63
2022/12/13 00:22:54;;;;;;;29.80;13.00;;;;;;;-3.15;100.00;98854.28;4214203;28;20294;-63
2022/12/13 00:25:20;;;;;;;24.63;11.20;;;;;;;-3.13;100.00;98850.63;4205242;28;20239;-65
2022/12/13 00:27:47;;;;;;;23.80;11.27;;;;;;;-3.14;100.00;98853.31;4206435;28;20234;-65
2022/12/13 00:30:14;;;;;;;24.73;10.60;;;;;;;-3.16;100.00;98863.00;4202654;28;20235;-65
2022/12/13 00:32:41;;;;;;;24.97;11.47;;;;;;;-3.11;100.00;98853.97;4224667;28;21831;-65
2022/12/13 00:35:08;;;;;;;22.00;10.17;;;;;;;-3.13;100.00;98857.63;4209850;28;20890;-65
2022/12/13 00:37:35;;;;;;;22.57;10.10;;;;;;;-3.13;100.00;98855.84;4207764;28;23569;-61
2022/12/13 00:40:01;;;;;;;19.70;9.87;;;;;;;-3.04;100.00;98868.25;4196502;28;20765;-63
2022/12/13 00:42:28;;;;;;;25.00;10.67;;;;;;;-3.08;100.00;98876.34;4205526;28;20653;-65
2022/12/13 00:44:54;;;;;;;27.90;11.83;;;;;;;-3.09;100.00;98875.53;4202484;28;20234;-66
2022/12/13 00:47:22;;;;;;;26.97;10.43;;;;;;;-2.94;100.00;98870.28;4198562;28;20446;-64
2022/12/13 00:49:48;;;;;;;25.93;11.17;;;;;;;-2.93;100.00;98877.13;4202653;28;21706;-63
2022/12/13 00:52:15;;;;;;;24.90;10.60;;;;;;;-2.90;100.00;98874.34;4205872;28;25865;-65
2022/12/13 00:54:41;;;;;;;19.63;9.87;;;;;;;-2.88;100.00;98864.66;4206259;28;20258;-63
2022/12/13 00:57:08;;;;;;;24.53;11.40;;;;;;;-2.97;100.00;98869.53;4205772;28;20291;-64
2022/12/13 00:59:35;;;;;;;21.70;9.60;;;;;;;-2.86;100.00;98875.81;4212395;28;20497;-62
2022/12/13 01:02:01;;;;;;;17.70;9.67;;;;;;;-2.89;100.00;98882.06;4212211;28;20264;-63
2022/12/13 01:04:28;;;;;;;18.57;9.27;;;;;;;-2.86;100.00;98884.44;4202382;28;20234;-65
2022/12/13 01:06:54;;;;;;;24.27;10.17;;;;;;;-2.95;100.00;98877.25;4216601;28;20621;-62
2022/12/13 01:09:26;;;;;;;22.67;9.77;;;;;;;-2.84;100.00;98879.16;4222910;28;20621;-63
2022/12/13 01:11:56;;;;;;;22.70;10.03;;;;;;;-2.90;100.00;98884.75;4214789;28;20247;-62
2022/12/13 01:14:23;;;;;;;17.33;9.63;;;;;;;-3.04;100.00;98893.44;4206481;28;20521;-64
2022/12/13 01:16:50;;;;;;;22.20;9.27;;;;;;;-2.95;100.00;98898.06;4217223;28;20231;-61
2022/12/13 01:19:17;;;;;;;20.00;9.40;;;;;;;-2.94;100.00;98889.31;4221102;28;22604;-60
2022/12/13 01:21:43;;;;;;;19.83;9.60;;;;;;;-2.93;100.00;98890.97;4226091;28;20615;-62
2022/12/13 01:24:10;;;;;;;21.67;9.37;;;;;;;-2.95;100.00;98900.69;4197201;28;20303;-61
2022/12/13 01:26:37;;;;;;;18.63;10.20;;;;;;;-2.92;100.00;98899.66;4210694;28;21931;-63
2022/12/13 01:29:04;;;;;;;20.90;9.53;;;;;;;-2.90;100.00;98892.53;4208656;28;20574;-62
2022/12/13 01:31:31;;;;;;;18.93;10.00;;;;;;;-2.98;100.00;98895.66;4216743;28;20224;-63
2022/12/13 01:33:59;;;;;;;21.97;11.20;;;;;;;-3.00;100.00;98900.97;4207206;28;20235;-64
2022/12/13 01:36:26;;;;;;;19.87;9.93;;;;;;;-3.09;100.00;98900.69;4213093;28;22044;-60
2022/12/13 01:38:55;;;;;;;24.00;11.23;;;;;;;-3.04;100.00;98904.69;4212537;28;20227;-60
2022/12/13 01:41:23;;;;;;;23.10;9.90;;;;;;;-3.03;100.00;98910.72;4209758;28;20283;-62
2022/12/13 01:43:55;;;;;;;19.80;9.50;;;;;;;-3.02;100.00;98908.03;4213392;28;22466;-60
2022/12/13 01:46:22;;;;;;;23.70;10.70;;;;;;;-3.07;100.00;98904.88;4215626;28;20236;-61
2022/12/13 01:48:54;;;;;;;21.93;10.57;;;;;;;-3.17;100.00;98909.00;4215029;28;20886;-63
2022/12/13 01:51:28;;;;;;;28.67;11.47;;;;;;;-3.16;100.00;98910.66;4213032;28;20320;-63
2022/12/13 01:53:57;;;;;;;20.73;10.30;;;;;;;-3.22;100.00;98921.44;4212722;28;25082;-62
2022/12/13 01:56:29;;;;;;;23.23;10.43;;;;;;;-3.27;100.00;98911.34;4206227;28;22468;-62
2022/12/13 01:58:56;;;;;;;26.60;10.83;;;;;;;-3.30;100.00;98913.28;4202965;28;21202;-61
2022/12/13 02:01:23;;;;;;;22.27;10.47;;;;;;;-3.36;100.00;98918.88;4196384;28;21841;-61
2022/12/13 02:03:50;;;;;;;25.03;10.37;;;;;;;-3.32;100.00;98916.00;4212411;28;20298;-60
2022/12/13 02:06:41;;;;;;;25.77;10.37;;;;;;;-3.34;100.00;98914.41;4211778;28;20242;-61
2022/12/13 02:09:08;;;;;;;21.60;10.90;;;;;;;-3.32;100.00;98909.97;4214084;28;20588;-62
2022/12/13 02:11:37;;;;;;;23.93;11.27;;;;;;;-3.36;100.00;98911.91;4212062;28;20233;-61
2022/12/13 02:14:04;;;;;;;28.17;11.13;;;;;;;-3.29;100.00;98920.16;4215630;28;20227;-62
2022/12/13 02:17:00;;;;;;;26.57;10.60;;;;;;;-3.27;100.00;98913.09;4205886;28;20369;-61
2022/12/13 02:19:39;;;;;;;20.10;10.37;;;;;;;-3.21;100.00;98913.56;4204310;28;20282;-61
2022/12/13 02:22:31;;;;;;;20.67;9.17;;;;;;;-3.15;100.00;98914.94;4209489;28;22869;-61
2022/12/13 02:25:13;;;;;;;22.93;10.33;;;;;;;-3.10;100.00;98912.03;4220778;28;21929;-61
2022/12/13 02:28:07;;;;;;;21.37;9.80;;;;;;;-3.07;100.00;98910.06;4231127;28;22273;-62
2022/12/13 02:31:03;;;;;;;21.80;10.00;;;;;;;-3.00;100.00;98913.97;4223172;28;20732;-61
2022/12/13 02:34:13;;;;;;;23.93;10.37;;;;;;;-2.94;100.00;98904.09;4209983;28;20289;-63
2022/12/13 02:37:00;;;;;;;22.70;10.17;;;;;;;-2.92;100.00;98907.47;4201305;28;20401;-63
2022/12/13 02:39:30;;;;;;;22.77;10.33;;;;;;;-2.99;100.00;98915.63;4214030;28;22450;-60
2022/12/13 02:42:15;;;;;;;23.70;10.17;;;;;;;-3.00;100.00;98910.53;4229215;28;20238;-63
2022/12/13 02:44:52;;;;;;;23.60;9.87;;;;;;;-3.01;100.00;98914.91;4221877;28;20524;-63
2022/12/13 02:47:21;;;;;;;20.93;10.90;;;;;;;-2.98;100.00;98917.28;4213238;28;20242;-62
2022/12/13 02:49:54;;;;;;;21.83;10.83;;;;;;;-2.86;100.00;98927.88;4223997;28;20236;-63
2022/12/13 02:52:24;;;;;;;20.53;10.23;;;;;;;-2.85;100.00;98919.16;4213095;28;20414;-61
2022/12/13 02:54:53;;;;;;;21.80;10.77;;;;;;;-2.81;100.00;98925.81;4217701;28;22941;-62
2022/12/13 02:57:40;;;;;;;25.10;12.33;;;;;;;-2.81;100.00;98933.59;4223765;28;20294;-61
2022/12/13 03:00:07;;;;;;;23.27;10.87;;;;;;;-2.76;100.00;98929.81;4232883;28;20684;-62
2022/12/13 03:03:11;;;;;;;24.70;11.60;;;;;;;-2.76;100.00;98931.56;4225918;28;20235;-61
2022/12/13 03:09:13;;;;;;;25.50;11.10;;;;;;;-2.74;100.00;98934.88;4220552;28;20323;-63
2022/12/13 03:15:09;;;;;;;24.63;10.73;;;;;;;-2.70;100.00;98938.16;4205049;28;21048;-62
2022/12/13 03:17:42;;;;;;;24.10;10.93;;;;;;;-2.69;100.00;98930.25;4227901;28;20458;-59
2022/12/13 03:20:09;;;;;;;22.77;10.80;;;;;;;-2.62;100.00;98941.09;4213424;28;20241;-62
2022/12/13 03:22:49;;;;;;;19.73;10.40;;;;;;;-2.71;100.00;98932.09;4227591;28;22650;-62
2022/12/13 03:25:15;;;;;;;22.73;11.27;;;;;;;-2.63;100.00;98924.63;4228057;28;20283;-63
2022/12/13 03:27:58;;;;;;;23.00;11.13;;;;;;;-2.68;100.00;98926.69;4217689;28;25406;-62
2022/12/13 03:30:28;;;;;;;18.27;9.90;;;;;;;-2.61;100.00;98930.56;4212337;28;22041;-61
2022/12/13 03:32:54;;;;;;;22.77;11.10;;;;;;;-2.65;100.00;98926.50;4216705;28;20612;-61
2022/12/13 03:35:21;;;;;;;19.90;10.43;;;;;;;-2.56;100.00;98919.84;4234935;28;20303;-60
2022/12/13 03:37:48;;;;;;;22.17;10.33;;;;;;;-2.55;100.00;98924.97;4224220;28;20351;-62
2022/12/13 03:40:15;;;;;;;31.90;11.53;;;;;;;-2.61;100.00;98927.97;4203543;28;20788;-61
2022/12/13 03:42:41;;;;;;;24.60;11.87;;;;;;;-2.60;100.00;98924.44;4207309;28;20303;-60
2022/12/13 03:45:08;;;;;;;26.17;12.33;;;;;;;-2.60;100.00;98932.25;4214975;28;20412;-62
2022/12/13 03:47:35;;;;;;;29.30;12.33;;;;;;;-2.60;100.00;98926.19;4221581;28;20235;-60
2022/12/13 03:50:01;;;;;;;25.17;12.60;;;;;;;-2.59;100.00;98936.53;4219610;28;20394;-62
2022/12/13 03:52:50;;;;;;;28.73;13.23;;;;;;;-2.65;100.00;98936.06;4230422;28;22638;-63
2022/12/13 03:55:17;;;;;;;23.83;12.83;;;;;;;-2.57;100.00;98934.66;4210435;28;20232;-62
2022/12/13 03:57:43;;;;;;;28.40;13.07;;;;;;;-2.65;100.00;98926.50;4214408;28;22494;-62
2022/12/13 04:00:10;;;;;;;27.27;13.10;;;;;;;-2.63;100.00;98935.03;4203889;28;21315;-61
2022/12/13 04:02:37;;;;;;;26.93;13.30;;;;;;;-2.63;100.00;98937.66;4219011;28;22300;-61
2022/12/13 04:05:04;;;;;;;31.90;14.90;;;;;;;-2.58;100.00;98940.78;4207792;28;20418;-60
2022/12/13 04:07:31;;;;;;;34.47;15.13;;;;;;;-2.57;100.00;98934.66;4208198;28;20247;-63
2022/12/13 04:10:00;;;;;;;29.20;13.83;;;;;;;-2.57;100.00;98945.06;4212618;28;20236;-60
2022/12/13 04:15:14;;;;;;;33.77;14.63;;;;;;;-2.53;100.00;98948.28;4228973;28;20281;-64
2022/12/13 04:17:41;;;;;;;28.83;13.87;;;;;;;-2.57;100.00;98942.47;4226326;28;20223;-62
2022/12/13 04:20:08;;;;;;;30.10;14.83;;;;;;;-2.50;100.00;98949.91;4214355;28;20365;-61
2022/12/13 04:22:35;;;;;;;34.70;15.27;;;;;;;-2.64;100.00;98942.97;4221522;28;25402;-59
2022/12/13 04:25:02;;;;;;;36.73;16.03;;;;;;;-2.56;100.00;98951.94;4224095;28;20239;-62
2022/12/13 04:27:29;;;;;;;31.70;15.43;;;;;;;-2.61;100.00;98954.00;4209956;28;20245;-61
2022/12/13 04:29:55;;;;;;;31.53;14.57;;;;;;;-2.61;100.00;98964.41;4217050;28;20677;-61
2022/12/13 04:32:22;;;;;;;32.43;14.53;;;;;;;-2.58;100.00;98959.00;4210298;28;20294;-60
2022/12/13 04:34:52;;;;;;;34.23;14.37;;;;;;;-2.58;100.00;98961.63;4212503;28;22394;-61
2022/12/13 04:37:27;;;;;;;31.77;15.33;;;;;;;-2.59;100.00;98957.34;4213328;28;20303;-61
2022/12/13 04:39:53;;;;;;;33.50;15.67;;;;;;;-2.58;100.00;98961.63;4207282;28;20233;-61
2022/12/13 04:42:26;;;;;;;30.47;14.83;;;;;;;-2.62;100.00;98954.13;4214715;28;20242;-61
2022/12/13 04:44:53;;;;;;;31.10;15.03;;;;;;;-2.57;100.00;98963.31;4210056;28;20283;-60
2022/12/13 04:47:19;;;;;;;30.90;14.60;;;;;;;-2.57;100.00;98970.28;4204325;28;21856;-64
2022/12/13 04:49:46;;;;;;;36.33;15.67;;;;;;;-2.58;100.00;98972.03;4232595;28;20251;-61
2022/12/13 04:52:13;;;;;;;33.27;14.50;;;;;;;-2.54;100.00;98975.28;4211435;28;20401;-61
2022/12/13 04:54:48;;;;;;;36.57;15.23;;;;;;;-2.60;100.00;98976.53;4209404;28;20863;-62
2022/12/13 04:57:21;;;;;;;35.60;15.70;;;;;;;-2.59;100.00;98978.19;4186738;28;20295;-63
2022/12/13 04:59:48;;;;;;;31.63;15.40;;;;;;;-2.62;100.00;98973.19;4214467;28;22266;-61
2022/12/13 05:02:14;;;;;;;34.70;15.50;;;;;;;-2.71;100.00;98975.53;4214197;28;20971;-63
2022/12/13 05:04:49;;;;;;;31.13;14.33;;;;;;;-2.84;100.00;98978.06;4211912;28;22030;-61
2022/12/13 05:07:19;;;;;;;32.30;15.27;;;;;;;-2.86;100.00;98966.91;4216865;28;20282;-61
2022/12/13 05:09:46;;;;;;;33.00;14.40;;;;;;;-2.94;100.00;98983.00;4231204;28;20279;-60
2022/12/13 05:12:12;;;;;;;37.70;14.73;;;;;;;-3.04;100.00;98976.72;4209994;28;20612;-64
2022/12/13 05:14:49;;;;;;;29.20;14.57;;;;;;;-3.06;100.00;98982.00;4214245;28;20251;-63
2022/12/13 05:17:15;;;;;;;30.53;14.53;;;;;;;-3.02;100.00;98977.44;4210442;28;20240;-62
2022/12/13 05:19:42;;;;;;;31.53;14.30;;;;;;;-3.05;100.00;98981.06;4213635;28;20273;-61
2022/12/13 05:22:14;;;;;;;32.90;15.17;;;;;;;-3.11;100.00;98984.06;4213599;28;20359;-63
2022/12/13 05:24:46;;;;;;;31.63;14.50;;;;;;;-3.02;100.00;98991.31;4216507;28;22154;-60
2022/12/13 05:27:13;;;;;;;30.17;14.87;;;;;;;-2.95;100.00;98996.09;4223200;28;22538;-61
2022/12/13 05:29:51;;;;;;;34.30;14.90;;;;;;;-2.88;100.00;98997.41;4224486;28;20391;-62
2022/12/13 05:32:32;;;;;;;30.60;14.37;;;;;;;-2.92;100.00;99003.75;4203118;28;20236;-63
2022/12/13 05:35:14;;;;;;;27.97;13.50;;;;;;;-2.97;100.00;98994.44;4204725;28;20303;-62
2022/12/13 05:37:50;;;;;;;28.70;14.20;;;;;;;-2.91;100.00;99008.00;4207630;28;22184;-60
2022/12/13 05:40:21;;;;;;;36.33;15.17;;;;;;;-2.97;100.00;99012.66;4218816;28;21631;-62
2022/12/13 05:42:47;;;;;;;31.50;13.77;;;;;;;-2.96;100.00;99005.69;4223001;28;21573;-60
2022/12/13 05:45:15;;;;;;;29.73;13.30;;;;;;;-2.97;100.00;99009.25;4233604;28;21460;-63
2022/12/13 05:47:42;;;;;;;32.13;14.63;;;;;;;-2.98;100.00;99012.75;4206301;28;20232;-64
2022/12/13 05:50:09;;;;;;;34.53;14.27;;;;;;;-3.01;100.00;99013.78;4214426;28;20234;-59
2022/12/13 05:52:36;;;;;;;30.83;13.97;;;;;;;-3.06;100.00;99020.22;4217279;28;20287;-63
2022/12/13 05:55:02;;;;;;;28.97;14.80;;;;;;;-2.97;100.00;99020.47;4234100;28;21201;-61
2022/12/13 05:57:29;;;;;;;26.27;12.47;;;;;;;-3.07;100.00;99018.53;4220436;28;20591;-60
2022/12/13 05:59:55;;;;;;;29.60;13.50;;;;;;;-3.14;100.00;99028.47;4221338;28;20836;-64
2022/12/13 06:02:22;;;;;;;25.73;11.90;;;;;;;-3.17;100.00;99022.63;4202845;28;20681;-63
2022/12/13 06:04:49;;;;;;;28.77;12.57;;;;;;;-3.26;100.00;99029.22;4219510;28;20275;-63
2022/12/13 06:07:15;;;;;;;28.77;12.13;;;;;;;-3.26;100.00;99031.81;4206781;28;20229;-62
2022/12/13 06:09:42;;;;;;;24.50;11.30;;;;;;;-3.25;100.00;99036.09;4216792;28;22595;-60
2022/12/13 06:12:09;;;;;;;25.77;11.83;;;;;;;-3.26;100.00;99037.00;4210247;28;20309;-62
2022/12/13 06:14:55;;;;;;;26.17;11.37;;;;;;;-3.33;100.00;99035.72;4214246;28;21010;-62
2022/12/13 06:17:42;;;;;;;30.60;11.00;;;;;;;-3.40;100.00;99043.88;4219740;28;22024;-60
2022/12/13 06:20:09;;;;;;;28.43;11.13;;;;;;;-3.41;100.00;99037.00;4210565;28;20736;-60
2022/12/13 06:22:51;;;;;;;23.83;10.67;;;;;;;-3.42;100.00;99043.16;4210624;28;20232;-61
2022/12/13 06:25:18;;;;;;;25.63;12.13;;;;;;;-3.44;100.00;99055.41;4206580;28;20307;-65
2022/12/13 06:27:56;;;;;;;26.40;11.57;;;;;;;-3.41;100.00;99059.59;4207175;28;21843;-59
2022/12/13 06:30:26;;;;;;;23.93;10.90;;;;;;;-3.44;100.00;99055.41;4205111;28;20233;-61
2022/12/13 06:32:52;;;;;;;24.97;10.37;;;;;;;-3.44;100.00;99059.78;4227042;28;20630;-59
2022/12/13 06:35:19;;;;;;;24.93;10.93;;;;;;;-3.45;100.00;99066.72;4231272;28;20232;-63
2022/12/13 06:37:57;;;;;;;26.20;11.73;;;;;;;-3.48;100.00;99063.47;4228037;28;21321;-61
2022/12/13 06:40:28;;;;;;;25.47;9.87;;;;;;;-3.46;100.00;99070.25;4214976;28;20235;-63
2022/12/13 06:42:54;;;;;;;24.57;11.33;;;;;;;-3.48;100.00;99076.47;4209838;28;20813;-66
2022/12/13 06:45:21;;;;;;;21.33;11.20;;;;;;;-3.50;100.00;99078.31;4217439;28;20235;-66
2022/12/13 06:47:47;;;;;;;22.93;11.27;;;;;;;-3.52;100.00;99083.59;4218935;28;22409;-61
2022/12/13 06:50:14;;;;;;;17.40;9.20;;;;;;;-3.49;100.00;99086.03;4237174;28;20352;-65
2022/12/13 06:52:40;;;;;;;20.70;9.50;;;;;;;-3.58;100.00;99086.56;4236965;28;20236;-66
2022/12/13 06:55:07;;;;;;;20.87;9.47;;;;;;;-3.57;100.00;99092.59;4225574;28;20300;-68
2022/12/13 06:57:35;;;;;;;19.77;10.03;;;;;;;-3.61;100.00;99102.34;4216071;28;20275;-67
2022/12/13 07:00:03;;;;;;;25.67;11.40;;;;;;;-3.59;100.00;99103.09;4210764;28;21917;-72
2022/12/13 07:02:31;;;;;;;20.43;10.20;;;;;;;-3.60;100.00;99104.03;4210865;28;21180;-67
2022/12/13 07:04:58;;;;;;;20.10;9.87;;;;;;;-3.64;100.00;99115.53;4211130;28;20239;-64
2022/12/13 07:07:25;;;;;;;21.90;9.53;;;;;;;-3.53;100.00;99110.53;4220962;28;20283;-65
2022/12/13 07:09:51;;;;;;;22.00;10.47;;;;;;;-3.64;100.00;99118.13;4194712;28;22939;-64
2022/12/13 07:12:19;;;;;;;17.47;8.67;;;;;;;-3.65;100.00;99112.09;4213457;28;20246;-64
2022/12/13 07:14:47;;;;;;;19.23;8.53;;;;;;;-3.65;100.00;99121.66;4215853;28;20668;-65
2022/12/13 07:17:14;;;;;;;22.67;10.10;;;;;;;-3.66;100.00;99123.41;4214319;28;20232;-64
2022/12/13 07:20:09;;;;;;;21.30;9.10;;;;;;;-3.68;100.00;99127.00;4211763;28;22207;-65
2022/12/13 07:22:37;;;;;;;23.20;10.13;;;;;;;-3.74;100.00;99128.22;4210215;28;20240;-66
2022/12/13 07:25:12;;;;;;;22.30;10.33;;;;;;;-3.67;100.00;99133.91;4216055;28;20294;-64
2022/12/13 07:28:01;;;;;;;21.87;9.60;;;;;;;-3.73;100.00;99135.06;4212715;28;20228;-63
2022/12/13 07:30:34;;;;;;;18.77;9.40;;;;;;;-3.71;100.00;99138.41;4217678;28;20656;-67
2022/12/13 07:33:08;;;;;;;18.20;8.67;;;;;;;-3.75;100.00;99146.47;4214985;28;20243;-65
2022/12/13 07:35:35;;;;;;;18.60;8.93;;;;;;;-3.86;100.00;99147.94;4203610;28;21790;-67
2022/12/13 07:38:03;;;;;;;17.77;8.37;;;;;;;-3.79;100.00;99140.63;4215453;28;20240;-66
2022/12/13 07:40:29;;;;;;;17.97;8.90;;;;;;;-3.75;100.00;99160.31;4204434;28;20431;-65
2022/12/13 07:42:56;;;;;;;16.27;9.03;;;;;;;-3.73;100.00;99155.03;4198993;28;20236;-66
2022/12/13 07:45:23;;;;;;;23.77;9.80;;;;;;;-3.72;100.00;99164.50;4217252;28;21321;-64
2022/12/13 07:47:49;;;;;;;19.87;9.57;;;;;;;-3.69;100.00;99167.78;4221585;28;20228;-63
2022/12/13 07:50:19;;;;;;;21.93;9.33;;;;;;;-3.68;100.00;99169.44;4195891;28;21282;-63
2022/12/13 07:52:51;;;;;;;20.93;9.33;;;;;;;-3.68;100.00;99166.84;4205737;28;20310;-62
2022/12/13 07:55:18;;;;;;;18.03;9.13;;;;;;;-3.80;100.00;99166.69;4215190;28;20285;-64
2022/12/13 07:58:03;;;;;;;19.03;9.47;;;;;;;-3.70;100.00;99173.91;4196098;28;20241;-64
2022/12/13 08:00:31;;;;;;;21.47;9.33;;;;;;;-3.78;100.00;99176.09;4208510;28;21398;-65
2022/12/13 08:02:59;;;;;;;18.27;9.63;;;;;;;-3.82;100.00;99170.22;4204720;28;20312;-62
2022/12/13 08:05:27;;;;;;;27.97;10.17;;;;;;;-3.78;100.00;99181.28;4197827;28;20271;-63
2022/12/13 08:07:54;;;;;;;19.43;9.77;;;;;;;-3.76;100.00;99183.81;4211953;28;20255;-63
2022/12/13 08:10:20;;;;;;;20.90;9.57;;;;;;;-3.83;100.00;99184.13;4209357;28;20236;-63
2022/12/13 08:12:48;;;;;;;20.43;9.90;;;;;;;-3.74;100.00;99185.38;4216679;28;22474;-65
2022/12/13 08:15:16;;;;;;;22.60;10.57;;;;;;;-3.78;100.00;99188.25;4207025;28;20224;-73
2022/12/13 08:17:42;;;;;;;24.13;11.67;;;;;;;-3.84;100.00;99190.25;4211539;28;21342;-67
2022/12/13 08:20:09;;;;;;;23.40;11.10;;;;;;;-3.79;100.00;99192.63;4195832;28;20607;-65
2022/12/13 08:22:36;;;;;;;22.90;10.50;;;;;;;-3.75;100.00;99183.69;4201716;28;20319;-66
2022/12/13 08:25:03;;;;;;;20.20;9.60;;;;;;;-3.75;100.00;99195.88;4213278;28;20245;-63
2022/12/13 08:27:29;;;;;;;20.90;11.20;;;;;;;-3.79;100.00;99186.56;4201729;28;21433;-66
2022/12/13 08:29:56;;;;;;;23.40;10.90;;;;;;;-3.79;100.00;99196.94;4224531;28;21281;-63
2022/12/13 08:32:22;;;;;;;22.20;10.80;;;;;;;-3.78;100.00;99204.66;4215100;28;20834;-64
2022/12/13 08:34:49;;;;;;;22.00;10.30;;;;;;;-3.72;100.00;99196.53;4208335;28;20707;-64
2022/12/13 08:37:16;;;;;;;22.30;11.07;;;;;;;-3.72;100.00;99193.09;4224736;28;20235;-65
2022/12/13 08:39:46;;;;;;;17.83;9.63;;;;;;;-3.75;100.00;99198.47;4214275;28;20305;-70
2022/12/13 08:42:14;;;;;;;22.20;10.37;;;;;;;-3.76;100.00;99202.81;4210765;28;22330;-65
2022/12/13 08:44:46;;;;;;;19.00;10.17;;;;;;;-3.72;100.00;99195.69;4227753;28;21495;-63
2022/12/13 08:47:13;;;;;;;18.50;10.10;;;;;;;-3.78;100.00;99203.84;4214419;28;21876;-63
2022/12/13 08:49:54;;;;;;;26.73;11.23;;;;;;;-3.77;100.00;99208.97;4231070;28;21233;-65
2022/12/13 08:52:30;;;;;;;21.77;10.17;;;;;;;-3.77;100.00;99205.50;4204515;28;20481;-66
2022/12/13 08:54:57;;;;;;;22.20;10.33;;;;;;;-3.82;100.00;99209.22;4234125;28;20335;-63
2022/12/13 08:57:23;;;;;;;20.17;9.97;;;;;;;-3.90;100.00;99211.38;4213433;28;20393;-63
2022/12/13 08:59:50;;;;;;;19.13;9.67;;;;;;;-3.80;100.00;99213.47;4216629;28;21933;-65
2022/12/13 09:02:17;;;;;;;22.70;11.10;;;;;;;-3.73;100.00;99220.84;4220224;28;21511;-65
2022/12/13 09:04:44;;;;;;;21.73;10.17;;;;;;;-3.76;100.00;99217.59;4216657;28;20237;-64
2022/12/13 09:07:11;;;;;;;20.30;9.83;;;;;;;-3.75;100.00;99220.09;4212763;28;22893;-67
2022/12/13 09:09:38;;;;;;;17.37;8.67;;;;;;;-3.71;100.00;99225.97;4216411;28;20292;-64
2022/12/13 09:12:04;;;;;;;19.80;9.33;;;;;;;-3.67;100.00;99237.88;4212105;28;20233;-62
2022/12/13 09:14:37;;;;;;;17.53;9.07;;;;;;;-3.69;100.00;99234.53;4210462;28;20224;-66
2022/12/13 09:17:13;;;;;;;18.23;9.20;;;;;;;-3.69;100.00;99235.34;4231005;28;20300;-65
2022/12/13 09:19:50;;;;;;;18.97;9.27;;;;;;;-3.72;100.00;99227.75;4218207;28;20228;-66
2022/12/13 09:22:24;;;;;;;21.53;9.30;;;;;;;-3.78;100.00;99238.47;4220482;28;20521;-67
2022/12/13 09:25:00;;;;;;;18.43;8.63;;;;;;;-3.75;100.00;99240.06;4247119;28;20234;-68
2022/12/13 09:27:29;;;;;;;20.13;9.70;;;;;;;-3.74;100.00;99234.78;4198052;28;21963;-66
2022/12/13 09:29:56;;;;;;;19.73;8.97;;;;;;;-3.76;100.00;99243.59;4211461;28;20247;-67
2022/12/13 09:32:23;;;;;;;19.30;9.07;;;;;;;-3.80;100.00;99236.88;4224557;28;25819;-63
2022/12/13 09:34:50;;;;;;;17.47;8.47;;;;;;;-3.70;100.00;99232.81;4218244;28;20229;-74
2022/12/13 09:37:17;;;;;;;17.47;9.47;;;;;;;-3.76;100.00;99228.00;4242564;28;20241;-66
2022/12/13 09:39:49;;;;;;;18.87;8.53;;;;;;;-3.66;100.00;99240.38;4211607;28;20573;-63
2022/12/13 09:42:23;;;;;;;13.97;8.03;;;;;;;-3.77;100.00;99241.88;4244341;28;21616;-64
2022/12/13 09:45:04;;;;;;;20.20;9.00;;;;;;;-3.75;100.00;99240.06;4199918;28;20456;-63
2022/12/13 09:47:38;;;;;;;20.33;9.23;;;;;;;-3.80;100.00;99236.88;4200626;28;20747;-66
2022/12/13 09:50:25;;;;;;;18.27;9.57;;;;;;;-3.71;100.00;99236.38;4199326;28;20232;-65
2022/12/13 09:52:52;;;;;;;18.43;9.50;;;;;;;-3.65;100.00;99249.03;4204243;28;20320;-65
2022/12/13 09:55:30;;;;;;;19.27;9.53;;;;;;;-3.64;100.00;99243.72;4214223;28;20686;-64
2022/12/13 09:57:57;;;;;;;20.17;9.53;;;;;;;-3.69;100.00;99244.91;4210809;28;21726;-63
2022/12/13 10:00:27;;;;;;;18.67;9.23;;;;;;;-3.69;100.00;99244.91;4199817;28;20224;-63
2022/12/13 10:02:56;;;;;;;19.63;9.30;;;;;;;-3.75;100.00;99250.44;4222230;28;20243;-63
2022/12/13 10:05:32;;;;;;;18.00;8.77;;;;;;;-3.71;100.00;99244.16;4195869;28;20559;-62
2022/12/13 10:08:13;;;;;;;20.37;9.53;;;;;;;-3.77;100.00;99244.50;4201320;28;20877;-63
2022/12/13 10:10:41;;;;;;;19.93;10.03;;;;;;;-3.71;100.00;99242.41;4222312;28;23106;-62
2022/12/13 10:13:18;;;;;;;19.03;9.97;;;;;;;-3.72;100.00;99245.06;4219470;28;20242;-66
2022/12/13 10:15:49;;;;;;;22.30;10.23;;;;;;;-3.83;100.00;99248.28;4211172;28;20350;-62
2022/12/13 10:18:23;;;;;;;22.40;10.00;;;;;;;-3.78;100.00;99254.06;4195999;28;20663;-64
2022/12/13 10:20:50;;;;;;;21.17;10.13;;;;;;;-3.82;100.00;99244.75;4208167;28;20241;-63
2022/12/13 10:23:16;;;;;;;22.03;9.53;;;;;;;-3.90;100.00;99245.16;4213592;28;20243;-62
2022/12/13 10:26:08;;;;;;;23.60;10.70;;;;;;;-3.83;100.00;99251.69;4236937;28;20247;-65
2022/12/13 10:28:50;;;;;;;24.97;11.13;;;;;;;-3.96;100.00;99245.47;4206155;28;20297;-64
2022/12/13 10:31:18;;;;;;;24.13;10.47;;;;;;;-3.98;100.00;99249.09;4236074;28;20375;-62
2022/12/13 10:33:53;;;;;;;22.23;10.83;;;;;;;-3.96;100.00;99250.69;4232794;28;20248;-62
2022/12/13 10:36:37;;;;;;;24.37;10.47;;;;;;;-3.89;100.00;99252.03;4221703;28;20419;-65
2022/12/13 10:39:04;;;;;;;27.83;11.03;;;;;;;-3.93;100.00;99255.72;4212824;28;20572;-64
2022/12/13 10:41:34;;;;;;;24.07;11.03;;;;;;;-3.90;100.00;99252.13;4227531;28;20373;-62
2022/12/13 10:44:10;;;;;;;27.90;11.23;;;;;;;-3.91;100.00;99250.44;4242299;28;20247;-65
2022/12/13 10:46:42;;;;;;;28.53;11.33;;;;;;;-3.78;100.00;99255.81;4242971;28;20295;-63
2022/12/13 10:49:22;;;;;;;21.50;10.03;;;;;;;-3.73;100.00;99252.03;4231929;28;20636;-62
2022/12/13 10:51:52;;;;;;;25.20;10.87;;;;;;;-3.76;100.00;99248.78;4236765;28;20230;-62
2022/12/13 10:54:28;;;;;;;24.47;11.67;;;;;;;-3.78;100.00;99241.06;4249301;28;21418;-69
2022/12/13 10:57:04;;;;;;;20.90;10.50;;;;;;;-3.82;100.00;99243.00;4243538;28;20231;-66
2022/12/13 10:59:35;;;;;;;21.30;10.57;;;;;;;-3.84;100.00;99247.44;4257027;28;21520;-68
2022/12/13 11:02:35;;;;;;;27.80;11.33;;;;;;;-3.75;100.00;99240.06;4227495;28;21329;-66
2022/12/13 11:05:23;;;;;;;23.23;11.50;;;;;;;-3.67;100.00;99243.09;4267322;28;20256;-70
2022/12/13 11:07:50;;;;;;;22.30;11.33;;;;;;;-3.58;100.00;99242.56;4304424;28;22314;-71
2022/12/13 11:10:24;;;;;;;29.43;11.97;;;;;;;-3.67;100.00;99243.09;4255245;28;20349;-73
2022/12/13 11:13:01;;;;;;;23.53;11.77;;;;;;;-3.73;100.00;99240.81;4271411;28;22311;-73
2022/12/13 11:15:29;;;;;;;28.57;11.83;;;;;;;-3.68;100.00;99241.38;4230393;28;20230;-76
2022/12/13 11:18:01;;;;;;;25.07;12.20;;;;;;;-3.50;100.00;99245.56;4267303;28;20245;-75
2022/12/13 11:20:38;;;;;;;20.63;10.73;;;;;;;-3.56;100.00;99245.06;4241323;28;21186;-69
2022/12/13 11:23:20;;;;;;;26.00;12.47;;;;;;;-3.69;100.00;99250.13;4235530;28;21733;-70
2022/12/13 11:25:47;;;;;;;25.13;11.47;;;;;;;-3.70;100.00;99241.50;4203795;28;20291;-69
2022/12/13 11:28:31;;;;;;;25.83;12.30;;;;;;;-3.83;100.00;99243.91;4232960;28;22969;-72
2022/12/13 11:31:07;;;;;;;27.13;11.73;;;;;;;-3.80;100.00;99242.91;4217874;28;25625;-69
2022/12/13 11:33:51;;;;;;;26.07;11.83;;;;;;;-3.96;100.00;99237.69;4219250;28;20413;-73
2022/12/13 11:36:36;;;;;;;28.27;13.20;;;;;;;-4.04;100.00;99234.69;4236258;28;23260;-72
2022/12/13 11:39:15;;;;;;;30.00;12.63;;;;;;;-4.03;100.00;99236.34;4222852;28;20255;-68